createdAt,value
2019-02-18T00:01:30.745Z,184.20
2019-02-18T00:04:19.501Z,176.80
2019-02-18T00:06:55.105Z,188.50
2019-02-18T00:09:25.092Z,179.30
2019-02-18T00:14:30.014Z,195.23
2019-02-18T00:17:12.953Z,171.40
2019-02-18T00:22:11.542Z,177.20
2019-02-18T00:24:45.869Z,193.57
2019-02-18T00:27:15.785Z,168.67
2019-02-18T00:29:47.027Z,174.93
2019-02-18T00:32:23.367Z,164.67
2019-02-18T00:34:53.410Z,186.93
2019-02-18T00:47:25.126Z,181.40
2019-02-18T00:52:23.726Z,150.43
2019-02-18T00:57:24.459Z,151.30
2019-02-18T00:59:56.422Z,137.90
2019-02-18T01:12:24.787Z,141.33
2019-02-18T01:14:55.494Z,142.00
2019-02-18T01:17:27.367Z,145.90
2019-02-18T01:19:56.128Z,142.83
2019-02-18T01:22:26.886Z,157.60
2019-02-18T01:27:30.814Z,134.23
2019-02-18T01:29:59.816Z,137.17
2019-02-18T01:32:33.489Z,135.20
2019-02-18T01:35:02.481Z,121.80
2019-02-18T01:37:31.907Z,120.47
2019-02-18T01:50:06.484Z,129.17
2019-02-18T01:52:35.896Z,149.20
2019-02-18T02:05:00.375Z,140.60
2019-02-18T02:10:00.872Z,118.83
2019-02-18T02:15:00.490Z,129.63
2019-02-18T02:19:59.828Z,118.97
2019-02-18T02:25:01.279Z,138.43
2019-02-18T02:27:30.799Z,123.73
2019-02-18T02:30:01.234Z,142.63
2019-02-18T02:35:01.127Z,140.80
2019-02-18T02:40:01.577Z,127.43
2019-02-18T02:42:30.468Z,131.47
2019-02-18T02:45:00.905Z,129.93
2019-02-18T02:50:00.617Z,118.37
2019-02-18T02:55:00.467Z,128.00
2019-02-18T03:00:01.511Z,114.30
2019-02-18T03:02:31.037Z,118.33
2019-02-18T03:10:23.910Z,120.33
2019-02-18T03:16:22.941Z,128.27
2019-02-18T03:22:18.057Z,123.17
2019-02-18T03:25:10.062Z,121.17
2019-02-18T03:27:38.975Z,128.27
2019-02-18T03:30:09.397Z,125.20
2019-02-18T03:45:04.767Z,118.73
2019-02-18T03:50:04.825Z,131.20
2019-02-18T03:52:36.458Z,119.10
2019-02-18T03:55:06.813Z,123.73
2019-02-18T03:57:35.887Z,120.10
2019-02-18T04:05:06.461Z,119.97
2019-02-18T04:10:23.996Z,120.93
2019-02-18T04:12:53.684Z,116.37
2019-02-18T04:15:30.363Z,117.70
2019-02-18T04:17:59.674Z,137.23
2019-02-18T04:20:29.887Z,131.63
2019-02-18T04:22:59.308Z,163.20
2019-02-18T04:25:30.236Z,154.63
2019-02-18T04:28:00.441Z,143.20
2019-02-18T04:30:31.109Z,138.10
2019-02-18T04:33:01.400Z,146.87
2019-02-18T04:38:01.358Z,158.27
2019-02-18T04:43:01.376Z,136.90
2019-02-18T04:45:30.878Z,141.13
2019-02-18T04:48:04.063Z,140.63
2019-02-18T04:50:40.436Z,138.93
2019-02-18T04:53:09.821Z,134.03
2019-02-18T04:55:40.977Z,130.20
2019-02-18T05:00:38.881Z,119.07
2019-02-18T05:03:09.109Z,120.80
2019-02-18T05:05:39.407Z,127.17
2019-02-18T05:08:10.125Z,124.87
2019-02-18T05:10:40.368Z,121.53
2019-02-18T05:13:11.000Z,125.87
2019-02-18T05:15:41.608Z,124.20
2019-02-18T05:18:11.841Z,141.60
2019-02-18T05:20:42.462Z,125.20
2019-02-18T05:23:12.389Z,123.97
2019-02-18T05:25:42.805Z,123.43
2019-02-18T05:28:14.372Z,138.97
2019-02-18T05:30:44.796Z,135.03
2019-02-18T05:33:14.916Z,144.33
2019-02-18T05:35:45.368Z,190.63
2019-02-18T05:38:15.888Z,198.80
2019-02-18T05:40:46.417Z,178.90
2019-02-18T05:43:16.706Z,179.97
2019-02-18T05:45:46.945Z,171.93
2019-02-18T05:48:16.642Z,196.40
2019-02-18T05:50:46.445Z,183.53
2019-02-18T05:53:16.878Z,248.13
2019-02-18T05:55:47.414Z,201.60
2019-02-18T05:58:18.360Z,202.17
2019-02-18T06:00:53.622Z,194.17
2019-02-18T06:03:24.620Z,209.80
2019-02-18T06:05:54.046Z,211.33
2019-02-18T06:08:22.816Z,226.00
2019-02-18T06:13:21.845Z,245.73
2019-02-18T06:15:52.269Z,267.50
2019-02-18T06:18:55.655Z,235.33
2019-02-18T06:21:26.491Z,205.23
2019-02-18T06:29:59.830Z,182.47
2019-02-18T06:32:38.024Z,184.37
2019-02-18T06:35:14.626Z,175.23
2019-02-18T06:40:54.478Z,172.60
2019-02-18T06:43:24.474Z,156.47
2019-02-18T06:56:00.932Z,187.47
2019-02-18T06:58:53.048Z,198.83
2019-02-18T07:01:42.946Z,202.13
2019-02-18T07:04:30.467Z,194.97
2019-02-18T07:07:22.740Z,164.43
2019-02-18T07:09:57.310Z,165.83
2019-02-18T07:12:32.249Z,140.63
2019-02-18T07:15:02.465Z,152.23
2019-02-18T07:17:39.047Z,146.57
2019-02-18T07:20:13.128Z,138.97
2019-02-18T07:25:28.020Z,157.60
2019-02-18T07:27:58.110Z,158.70
2019-02-18T07:32:57.904Z,160.00
2019-02-18T07:37:56.277Z,147.57
2019-02-18T07:40:24.867Z,145.57
2019-02-18T07:42:56.511Z,133.17
2019-02-18T07:45:26.954Z,136.00
2019-02-18T07:47:59.507Z,141.97
2019-02-18T07:50:30.269Z,140.83
2019-02-18T07:53:19.520Z,134.80
2019-02-18T07:55:50.447Z,139.40
2019-02-18T07:58:19.663Z,133.27
2019-02-18T08:00:52.979Z,131.47
2019-02-18T08:03:23.485Z,128.53
2019-02-18T08:05:53.696Z,129.60
2019-02-18T08:08:23.925Z,136.47
2019-02-18T08:13:22.184Z,137.77
2019-02-18T08:15:51.925Z,139.73
2019-02-18T08:18:23.061Z,127.33
2019-02-18T08:20:51.746Z,130.17
2019-02-18T08:23:25.339Z,127.07
2019-02-18T08:25:55.787Z,131.40
2019-02-18T08:28:29.106Z,131.47
2019-02-18T08:31:02.455Z,136.60
2019-02-18T08:33:37.696Z,151.43
2019-02-18T08:36:09.245Z,154.43
2019-02-18T08:41:21.574Z,127.50
2019-02-18T08:43:55.987Z,131.27
2019-02-18T08:46:28.887Z,147.37
2019-02-18T08:49:00.947Z,137.40
2019-02-18T08:51:41.398Z,127.43
2019-02-18T08:54:12.038Z,142.17
2019-02-18T08:56:42.459Z,128.37
2019-02-18T08:59:12.370Z,129.60
2019-02-18T09:01:42.486Z,118.83
2019-02-18T09:04:12.814Z,122.40
2019-02-18T09:06:44.152Z,122.00
2019-02-18T09:09:14.276Z,127.40
2019-02-18T09:11:44.322Z,122.70
2019-02-18T09:14:14.103Z,121.00
2019-02-18T09:16:44.323Z,123.93
2019-02-18T09:19:15.267Z,109.97
2019-02-18T09:21:49.686Z,123.93
2019-02-18T09:24:32.911Z,120.87
2019-02-18T09:27:03.237Z,119.43
2019-02-18T09:29:33.147Z,112.73
2019-02-18T09:32:02.956Z,117.67
2019-02-18T09:34:32.784Z,108.00
2019-02-18T09:37:02.579Z,112.03
2019-02-18T09:39:32.707Z,114.67
2019-02-18T09:42:02.516Z,122.87
2019-02-18T09:44:32.637Z,124.37
2019-02-18T09:47:02.344Z,122.23
2019-02-18T09:49:32.145Z,111.07
2019-02-18T09:52:02.295Z,111.13
2019-02-18T09:54:32.081Z,110.07
2019-02-18T09:57:01.894Z,110.23
2019-02-18T09:59:31.812Z,109.77
2019-02-18T10:02:01.723Z,98.60
2019-02-18T10:04:31.844Z,114.23
2019-02-18T10:07:00.434Z,109.90
2019-02-18T10:09:29.212Z,123.83
2019-02-18T10:11:57.795Z,102.87
2019-02-18T10:14:29.040Z,108.23
2019-02-18T10:19:44.838Z,79.93
2019-02-18T10:22:15.070Z,87.03
2019-02-18T10:24:50.439Z,74.50
2019-02-18T10:27:17.361Z,77.53
2019-02-18T10:29:48.500Z,72.57
2019-02-18T10:32:18.507Z,78.97
2019-02-18T10:34:48.633Z,70.77
2019-02-18T10:37:19.053Z,71.97
2019-02-18T10:39:50.300Z,71.57
2019-02-18T10:42:21.142Z,71.57
2019-02-18T10:49:50.674Z,72.60
2019-02-18T10:54:51.104Z,78.60
2019-02-18T10:57:20.313Z,74.10
2019-02-18T10:59:50.540Z,74.13
2019-02-18T11:04:52.001Z,72.00
2019-02-18T11:07:23.764Z,71.83
2019-02-18T11:09:54.496Z,72.53
2019-02-18T11:19:53.030Z,64.60
2019-02-18T11:24:50.903Z,61.00
2019-02-18T11:29:50.432Z,58.50
2019-02-18T11:32:20.765Z,62.40
2019-02-18T11:34:51.282Z,59.23
2019-02-18T11:37:21.807Z,57.67
2019-02-18T11:39:54.286Z,55.07
2019-02-18T11:42:24.105Z,56.10
2019-02-18T11:47:26.994Z,51.87
2019-02-18T11:49:57.845Z,50.57
2019-02-18T11:52:27.744Z,51.63
2019-02-18T11:54:57.458Z,51.40
2019-02-18T11:59:58.506Z,57.47
2019-02-18T12:02:27.093Z,50.93
2019-02-18T12:05:00.295Z,48.77
2019-02-18T12:10:00.013Z,52.97
2019-02-18T12:12:30.123Z,46.23
2019-02-18T12:15:00.353Z,52.47
2019-02-18T12:17:30.483Z,52.97
2019-02-18T12:25:00.382Z,57.30
2019-02-18T12:27:32.071Z,45.17
2019-02-18T12:39:59.802Z,48.43
2019-02-18T12:50:00.691Z,56.73
2019-02-18T12:52:30.712Z,47.70
2019-02-18T13:10:00.713Z,37.57
2019-02-18T13:12:30.617Z,37.93
2019-02-18T13:20:04.268Z,38.60
2019-02-18T13:22:33.562Z,31.73
2019-02-18T13:30:05.452Z,32.60
2019-02-18T13:37:32.635Z,25.40
2019-02-18T13:42:33.493Z,25.57
2019-02-18T13:47:31.792Z,28.53
2019-02-18T13:50:02.832Z,44.03
2019-02-18T13:52:33.462Z,22.13
2019-02-18T13:55:04.703Z,24.27
2019-02-18T13:57:34.918Z,20.90
2019-02-18T14:00:06.692Z,25.20
2019-02-18T14:05:16.446Z,20.63
2019-02-18T14:07:46.863Z,20.63
2019-02-18T14:10:17.702Z,24.30
2019-02-18T14:12:47.935Z,28.80
2019-02-18T14:15:18.775Z,24.23
2019-02-18T14:17:50.563Z,31.83
2019-02-18T14:20:20.728Z,25.67
2019-02-18T14:22:51.062Z,25.37
2019-02-18T14:25:21.284Z,25.10
2019-02-18T14:27:51.702Z,26.73
2019-02-18T14:30:21.822Z,30.77
2019-02-18T14:32:52.452Z,26.00
2019-02-18T14:35:22.784Z,32.80
2019-02-18T14:37:53.830Z,29.53
2019-02-18T14:40:24.866Z,30.13
2019-02-18T14:42:55.493Z,29.57
2019-02-18T14:45:25.713Z,31.97
2019-02-18T14:47:55.844Z,29.10
2019-02-18T14:50:26.364Z,28.40
2019-02-18T14:52:57.503Z,31.03
2019-02-18T14:58:10.442Z,32.50
2019-02-18T15:00:40.774Z,25.13
2019-02-18T15:05:41.816Z,26.73
2019-02-18T15:08:11.106Z,26.57
2019-02-18T15:10:42.162Z,25.37
2019-02-18T15:13:11.768Z,26.77
2019-02-18T15:15:41.686Z,31.77
2019-02-18T15:18:10.473Z,34.47
2019-02-18T15:20:40.483Z,37.80
2019-02-18T15:23:09.274Z,38.37
2019-02-18T15:25:39.717Z,45.10
2019-02-18T15:28:10.034Z,45.87
2019-02-18T15:30:41.393Z,49.13
2019-02-18T15:33:11.493Z,65.87
2019-02-18T15:35:39.967Z,73.17
2019-02-18T15:38:10.294Z,65.43
2019-02-18T15:43:07.977Z,58.37
2019-02-18T15:45:37.163Z,60.97
2019-02-18T15:48:08.170Z,82.10
2019-02-18T15:53:05.680Z,75.50
2019-02-18T15:55:34.793Z,76.50
2019-02-18T15:58:06.233Z,81.37
2019-02-18T16:00:36.754Z,83.07
2019-02-18T16:03:07.814Z,80.70
2019-02-18T16:05:38.224Z,63.60
2019-02-18T16:08:07.535Z,66.97
2019-02-18T16:10:38.969Z,66.67
2019-02-18T16:13:08.894Z,68.07
2019-02-18T16:15:39.222Z,86.80
2019-02-18T16:18:07.990Z,89.90
2019-02-18T16:20:37.934Z,96.80
2019-02-18T16:23:07.720Z,82.10
2019-02-18T16:25:38.790Z,95.37
2019-02-18T16:28:09.815Z,87.83
2019-02-18T16:30:38.804Z,101.67
2019-02-18T16:33:09.540Z,94.07
2019-02-18T16:35:39.115Z,87.13
2019-02-18T16:38:09.774Z,87.60
2019-02-18T16:43:07.872Z,138.23
2019-02-18T16:45:37.786Z,164.20
2019-02-18T16:48:08.829Z,189.93
2019-02-18T16:50:50.826Z,226.20
2019-02-18T16:53:20.955Z,218.57
2019-02-18T16:55:51.266Z,217.93
2019-02-18T16:58:22.106Z,237.53
2019-02-18T17:01:09.715Z,237.60
2019-02-18T17:03:49.874Z,222.03
2019-02-18T17:06:21.458Z,198.77
2019-02-18T17:08:52.274Z,189.47
2019-02-18T17:11:21.115Z,170.67
2019-02-18T17:13:51.502Z,171.27
2019-02-18T17:18:49.788Z,183.30
2019-02-18T17:21:18.666Z,182.07
2019-02-18T17:23:48.874Z,180.60
2019-02-18T17:28:46.692Z,173.93
2019-02-18T17:31:15.666Z,168.47
2019-02-18T17:33:45.906Z,168.03
2019-02-18T17:36:14.914Z,167.27
2019-02-18T17:38:45.514Z,169.57
2019-02-18T17:41:15.834Z,163.63
2019-02-18T17:43:46.249Z,172.23
2019-02-18T17:46:16.707Z,155.43
2019-02-18T17:48:45.376Z,158.53
2019-02-18T17:51:15.672Z,174.50
2019-02-18T17:53:44.674Z,168.33
2019-02-18T17:56:14.387Z,175.17
2019-02-18T18:01:12.477Z,179.40
2019-02-18T18:03:41.266Z,180.00
2019-02-18T18:06:11.470Z,187.13
2019-02-18T18:08:40.306Z,165.57
2019-02-18T18:11:10.790Z,146.57
2019-02-18T18:13:41.210Z,139.27
2019-02-18T18:16:11.789Z,162.87
2019-02-18T18:18:41.771Z,130.90
2019-02-18T18:23:40.586Z,145.57
2019-02-18T18:26:12.239Z,160.77
2019-02-18T18:28:42.451Z,183.80
2019-02-18T18:31:12.751Z,195.67
2019-02-18T18:33:42.991Z,172.50
2019-02-18T18:36:13.320Z,160.07
2019-02-18T18:38:44.351Z,193.67
2019-02-18T18:41:14.795Z,199.40
2019-02-18T18:43:45.426Z,215.63
2019-02-18T18:46:16.274Z,194.43
2019-02-18T18:48:46.999Z,201.07
2019-02-18T18:51:17.311Z,176.27
2019-02-18T18:53:47.759Z,166.23
2019-02-18T18:56:18.387Z,172.50
2019-02-18T18:58:53.026Z,177.20
2019-02-18T19:01:25.867Z,171.40
2019-02-18T19:03:56.148Z,155.97
2019-02-18T19:06:26.747Z,158.33
2019-02-18T19:08:57.055Z,137.13
2019-02-18T19:11:27.787Z,138.10
2019-02-18T19:13:57.708Z,142.50
2019-02-18T19:16:27.826Z,129.13
2019-02-18T19:18:58.130Z,129.40
2019-02-18T19:21:28.113Z,135.97
2019-02-18T19:23:58.906Z,127.37
2019-02-18T19:26:29.714Z,119.63
2019-02-18T19:29:01.507Z,123.77
2019-02-18T19:31:35.114Z,125.73
2019-02-18T19:34:06.467Z,134.20
2019-02-18T19:36:45.034Z,115.30
2019-02-18T19:39:25.126Z,112.77
2019-02-18T19:41:58.692Z,108.93
2019-02-18T19:44:36.802Z,121.50
2019-02-18T19:47:22.986Z,107.63
2019-02-18T19:50:11.674Z,116.30
2019-02-18T19:52:55.706Z,120.13
2019-02-18T19:55:28.938Z,118.57
2019-02-18T19:58:07.010Z,133.27
2019-02-18T20:00:52.908Z,144.97
2019-02-18T20:03:23.347Z,120.97
2019-02-18T20:05:53.866Z,129.70
2019-02-18T20:08:24.586Z,136.93
2019-02-18T20:10:54.707Z,135.90
2019-02-18T20:13:24.915Z,141.20
2019-02-18T20:15:55.548Z,142.60
2019-02-18T20:18:25.916Z,156.33
2019-02-18T20:20:56.827Z,133.83
2019-02-18T20:23:27.146Z,143.00
2019-02-18T20:25:57.386Z,141.57
2019-02-18T20:28:29.187Z,139.73
2019-02-18T20:31:01.068Z,135.87
2019-02-18T20:33:32.833Z,150.00
2019-02-18T20:36:03.386Z,142.23
2019-02-18T20:38:34.749Z,144.53
2019-02-18T20:41:05.851Z,156.00
2019-02-18T20:44:21.778Z,153.80
2019-02-18T20:47:01.891Z,154.33
2019-02-18T20:49:41.468Z,160.63
2019-02-18T20:52:12.471Z,185.00
2019-02-18T20:54:59.317Z,175.67
2019-02-18T20:57:51.611Z,186.60
2019-02-18T21:00:33.506Z,153.83
2019-02-18T21:03:16.670Z,168.27
2019-02-18T21:05:49.148Z,178.50
2019-02-18T21:08:26.106Z,183.23
2019-02-18T21:11:01.027Z,191.60
2019-02-18T21:13:55.394Z,163.83
2019-02-18T21:16:26.107Z,183.23
2019-02-18T21:19:01.826Z,169.47
2019-02-18T21:21:35.826Z,171.93
2019-02-18T21:24:08.307Z,166.00
2019-02-18T21:26:43.546Z,158.73
2019-02-18T21:29:14.984Z,154.20
2019-02-18T21:31:45.415Z,150.47
2019-02-18T21:34:15.703Z,140.57
2019-02-18T21:39:15.543Z,143.03
2019-02-18T21:41:45.904Z,131.93
2019-02-18T21:44:25.051Z,126.20
2019-02-18T21:46:47.935Z,128.87
2019-02-18T21:49:18.494Z,127.17
2019-02-18T21:51:49.398Z,124.63
2019-02-18T21:54:19.855Z,112.97
2019-02-18T21:56:50.495Z,122.70
2019-02-18T21:59:19.791Z,123.53
2019-02-18T22:01:50.521Z,124.80
2019-02-18T22:06:48.100Z,121.67
2019-02-18T22:09:16.978Z,123.90
2019-02-18T22:11:47.077Z,150.60
2019-02-18T22:16:44.660Z,210.97
2019-02-18T22:19:13.471Z,211.00
2019-02-18T22:21:43.677Z,226.07
2019-02-18T22:24:12.451Z,229.07
2019-02-18T22:26:42.582Z,237.23
2019-02-18T22:29:12.685Z,238.63
2019-02-18T22:31:42.828Z,243.07
2019-02-18T22:34:12.845Z,227.93
2019-02-18T22:36:43.266Z,227.27
2019-02-18T22:39:13.398Z,210.67
2019-02-18T22:44:11.876Z,243.07
2019-02-18T22:46:40.885Z,229.13
2019-02-18T22:49:11.295Z,211.53
2019-02-18T22:51:40.077Z,217.87
2019-02-18T22:54:10.305Z,207.87
2019-02-18T22:56:40.659Z,227.83
2019-02-18T22:59:10.758Z,228.57
2019-02-18T23:01:42.577Z,215.13
2019-02-18T23:06:41.709Z,206.87
2019-02-18T23:09:14.485Z,183.33
2019-02-18T23:11:44.941Z,184.13
2019-02-18T23:14:15.247Z,170.87
2019-02-18T23:16:45.762Z,165.03
2019-02-18T23:19:15.810Z,161.57
2019-02-18T23:21:45.826Z,161.57
2019-02-18T23:24:16.637Z,143.80
2019-02-18T23:26:46.446Z,145.83
2019-02-18T23:29:16.677Z,147.10
2019-02-18T23:31:46.912Z,160.93
2019-02-18T23:34:16.923Z,147.97
2019-02-18T23:36:47.335Z,149.73
2019-02-18T23:39:17.039Z,142.33
2019-02-18T23:41:47.266Z,133.83
2019-02-18T23:44:17.479Z,137.93
2019-02-18T23:46:47.730Z,134.27
2019-02-18T23:49:17.743Z,140.30
2019-02-18T23:51:47.652Z,148.10
2019-02-18T23:54:18.104Z,140.80
2019-02-18T23:56:48.306Z,138.27
2019-02-18T23:59:18.089Z,134.13
